Observations for BLACKPOOL AIRPORT, United Kingdom (EGNH)

EGNH 201650Z 31018KT 9999 FEW046 15/06 Q1020
EGNH 201620Z 30019KT 9999 FEW041 16/07 Q1020
EGNH 201550Z 30017KT 9999 FEW040 15/09 Q1020
EGNH 201520Z 29019KT 9999 FEW023 16/10 Q1019
EGNH 201450Z 30019KT 9999 FEW023 16/10 Q1019
EGNH 201420Z 30016KT 9999 FEW019 16/10 Q1019
EGNH 201320Z 31018KT 280V340 9999 FEW012 15/10 Q1019
EGNH 201250Z 30016KT 9999 FEW021 SCT042 15/10 Q1018 
EGNH 201220Z 30016KT 9999 BKN048 15/11 Q1018
EGNH 201150Z 29016KT 9999 FEW034 BKN036 14/11 Q1018 
EGNH 201120Z 29017KT 9999 FEW038 BKN043 14/12 Q1017 
EGNH 201050Z 29018KT 9999 FEW014 BKN020 15/12 Q1017 
EGNH 201020Z 27024G34KT 9999 VCSH FEW001 SCT006 15/14 Q1016 
EGNH 200950Z 24023KT 9999 VCSH BKN007 17/16 Q1016   
EGNH 200920Z 24022KT 8000 VCSH SCT013 BKN017 16/16 Q1015
EGNH 200820Z 24022KT 6000 -RADZ BKN005 16/15 Q1015  
EGNH 200750Z 24024G34KT 9999 VCSH BKN007 16/16 Q1015
EGNH 200720Z 23024KT 9999 BKN006 16/16 Q1015
EGNH 200650Z 23023KT 9999 SCT007 BKN009 16/16 Q1015 
EGNH 200620Z 22024KT 9999 FEW004 SCT010 BKN015 16/16 Q1014  
EGNH 200550Z 22018KT 5000 2000S DZRA FEW003 BKN004 16/16 Q1014  
EGNH 200520Z 21018KT 9999 -DZ FEW007 BKN016 17/16 Q1014 
EGNH 191950Z 20018KT 9999 FEW030 18/16 Q1017
EGNH 191920Z 20019KT 9999 FEW025 18/16 Q1018
EGNH 191850Z 19015KT 9999 FEW022 19/16 Q1017
EGNH 191820Z 18014KT 9999 FEW014 19/16 Q1017
EGNH 191750Z 19010KT 9999 FEW015 SCT042 18/15 Q1018 
EGNH 191720Z 20008KT 9999 FEW014 SCT037 17/14 Q1018 
EGNH 191650Z 20008KT 9999 FEW015 BKN032 17/14 Q1018 
EGNH 191620Z 22007KT 9999 SCT012 BKN033 17/14 Q1019